sensor_id;sensor_type;location;lat;lon;timestamp;P1;durP1;ratioP1;P2;durP2;ratioP2
86304;SDS011;76964;49.316;7.118;2024-03-07T00:00:37;4.77;;;4.57;;
86304;SDS011;76964;49.316;7.118;2024-03-07T00:03:06;3.87;;;3.73;;
86304;SDS011;76964;49.316;7.118;2024-03-07T00:05:36;4.53;;;4.33;;
86304;SDS011;76964;49.316;7.118;2024-03-07T00:08:04;4.50;;;4.30;;
86304;SDS011;76964;49.316;7.118;2024-03-07T00:10:32;4.50;;;4.30;;
86304;SDS011;76964;49.316;7.118;2024-03-07T00:13:02;5.10;;;4.80;;
86304;SDS011;76964;49.316;7.118;2024-03-07T00:15:31;5.00;;;4.80;;
86304;SDS011;76964;49.316;7.118;2024-03-07T00:17:59;4.43;;;4.23;;
86304;SDS011;76964;49.316;7.118;2024-03-07T00:20:28;4.73;;;4.53;;
86304;SDS011;76964;49.316;7.118;2024-03-07T00:22:57;4.57;;;4.37;;
86304;SDS011;76964;49.316;7.118;2024-03-07T00:25:25;4.63;;;4.43;;
86304;SDS011;76964;49.316;7.118;2024-03-07T00:27:53;5.17;;;4.90;;
86304;SDS011;76964;49.316;7.118;2024-03-07T00:30:23;4.83;;;4.63;;
86304;SDS011;76964;49.316;7.118;2024-03-07T00:32:51;4.80;;;4.60;;
86304;SDS011;76964;49.316;7.118;2024-03-07T00:35:21;4.80;;;4.60;;
86304;SDS011;76964;49.316;7.118;2024-03-07T00:37:49;4.50;;;4.30;;
86304;SDS011;76964;49.316;7.118;2024-03-07T00:40:19;4.87;;;4.67;;
86304;SDS011;76964;49.316;7.118;2024-03-07T00:42:47;5.40;;;5.17;;
86304;SDS011;76964;49.316;7.118;2024-03-07T00:45:15;5.60;;;5.30;;
86304;SDS011;76964;49.316;7.118;2024-03-07T00:47:43;5.13;;;4.83;;
86304;SDS011;76964;49.316;7.118;2024-03-07T00:50:12;5.07;;;4.87;;
86304;SDS011;76964;49.316;7.118;2024-03-07T00:52:40;5.03;;;4.83;;
86304;SDS011;76964;49.316;7.118;2024-03-07T00:55:08;5.27;;;5.07;;
86304;SDS011;76964;49.316;7.118;2024-03-07T00:57:38;6.00;;;5.70;;
86304;SDS011;76964;49.316;7.118;2024-03-07T01:00:06;5.40;;;5.13;;
86304;SDS011;76964;49.316;7.118;2024-03-07T01:02:40;5.57;;;5.27;;
86304;SDS011;76964;49.316;7.118;2024-03-07T01:05:10;5.70;;;5.40;;
86304;SDS011;76964;49.316;7.118;2024-03-07T01:07:39;5.93;;;5.63;;
86304;SDS011;76964;49.316;7.118;2024-03-07T01:10:09;5.40;;;5.20;;
86304;SDS011;76964;49.316;7.118;2024-03-07T01:12:38;5.80;;;5.47;;
86304;SDS011;76964;49.316;7.118;2024-03-07T01:15:07;5.83;;;5.53;;
86304;SDS011;76964;49.316;7.118;2024-03-07T01:17:38;5.67;;;5.37;;
86304;SDS011;76964;49.316;7.118;2024-03-07T01:20:08;4.93;;;4.73;;
86304;SDS011;76964;49.316;7.118;2024-03-07T01:22:38;5.87;;;5.57;;
86304;SDS011;76964;49.316;7.118;2024-03-07T01:25:06;5.80;;;5.47;;
86304;SDS011;76964;49.316;7.118;2024-03-07T01:27:34;6.60;;;6.20;;
86304;SDS011;76964;49.316;7.118;2024-03-07T01:30:04;6.30;;;6.00;;
86304;SDS011;76964;49.316;7.118;2024-03-07T01:32:34;5.90;;;5.60;;
86304;SDS011;76964;49.316;7.118;2024-03-07T01:35:02;5.40;;;5.20;;
86304;SDS011;76964;49.316;7.118;2024-03-07T01:37:33;5.90;;;5.63;;
86304;SDS011;76964;49.316;7.118;2024-03-07T01:40:01;6.40;;;6.00;;
86304;SDS011;76964;49.316;7.118;2024-03-07T01:42:29;6.53;;;6.23;;
86304;SDS011;76964;49.316;7.118;2024-03-07T01:44:57;6.23;;;5.93;;
86304;SDS011;76964;49.316;7.118;2024-03-07T01:47:27;6.40;;;6.10;;
86304;SDS011;76964;49.316;7.118;2024-03-07T01:49:55;6.47;;;6.17;;
86304;SDS011;76964;49.316;7.118;2024-03-07T01:52:25;6.90;;;6.50;;
86304;SDS011;76964;49.316;7.118;2024-03-07T01:54:53;6.13;;;5.83;;
86304;SDS011;76964;49.316;7.118;2024-03-07T01:57:22;6.07;;;5.87;;
86304;SDS011;76964;49.316;7.118;2024-03-07T01:59:50;7.00;;;6.60;;
86304;SDS011;76964;49.316;7.118;2024-03-07T02:02:18;6.80;;;6.50;;
86304;SDS011;76964;49.316;7.118;2024-03-07T02:04:48;6.10;;;5.80;;
86304;SDS011;76964;49.316;7.118;2024-03-07T02:07:16;6.30;;;6.00;;
86304;SDS011;76964;49.316;7.118;2024-03-07T02:09:44;6.13;;;5.83;;
86304;SDS011;76964;49.316;7.118;2024-03-07T02:12:12;6.57;;;6.20;;
86304;SDS011;76964;49.316;7.118;2024-03-07T02:14:40;7.03;;;6.63;;
86304;SDS011;76964;49.316;7.118;2024-03-07T02:17:08;7.10;;;6.70;;
86304;SDS011;76964;49.316;7.118;2024-03-07T02:19:36;6.83;;;6.50;;
86304;SDS011;76964;49.316;7.118;2024-03-07T02:22:07;6.83;;;6.43;;
86304;SDS011;76964;49.316;7.118;2024-03-07T02:24:35;6.57;;;6.27;;
86304;SDS011;76964;49.316;7.118;2024-03-07T02:27:03;6.43;;;6.13;;
86304;SDS011;76964;49.316;7.118;2024-03-07T02:29:31;6.83;;;6.43;;
86304;SDS011;76964;49.316;7.118;2024-03-07T02:31:59;7.50;;;7.10;;
86304;SDS011;76964;49.316;7.118;2024-03-07T02:34:27;6.67;;;6.27;;
86304;SDS011;76964;49.316;7.118;2024-03-07T02:36:55;6.50;;;6.20;;
86304;SDS011;76964;49.316;7.118;2024-03-07T02:39:25;6.97;;;6.67;;
86304;SDS011;76964;49.316;7.118;2024-03-07T02:41:53;6.77;;;6.47;;
86304;SDS011;76964;49.316;7.118;2024-03-07T02:44:22;6.93;;;6.63;;
86304;SDS011;76964;49.316;7.118;2024-03-07T02:46:50;8.27;;;7.77;;
86304;SDS011;76964;49.316;7.118;2024-03-07T02:49:18;5.97;;;5.77;;
86304;SDS011;76964;49.316;7.118;2024-03-07T02:51:47;7.00;;;6.63;;
86304;SDS011;76964;49.316;7.118;2024-03-07T02:54:15;6.93;;;6.53;;
86304;SDS011;76964;49.316;7.118;2024-03-07T02:56:45;6.73;;;6.43;;
86304;SDS011;76964;49.316;7.118;2024-03-07T02:59:13;7.43;;;7.03;;
86304;SDS011;76964;49.316;7.118;2024-03-07T03:01:42;7.53;;;7.03;;
86304;SDS011;76964;49.316;7.118;2024-03-07T03:04:11;7.30;;;6.90;;
86304;SDS011;76964;49.316;7.118;2024-03-07T03:06:39;7.00;;;6.70;;
86304;SDS011;76964;49.316;7.118;2024-03-07T03:09:07;6.90;;;6.60;;
86304;SDS011;76964;49.316;7.118;2024-03-07T03:11:39;6.93;;;6.53;;
86304;SDS011;76964;49.316;7.118;2024-03-07T03:14:09;7.37;;;6.97;;
86304;SDS011;76964;49.316;7.118;2024-03-07T03:16:40;7.27;;;6.87;;
86304;SDS011;76964;49.316;7.118;2024-03-07T03:19:14;7.53;;;7.13;;
86304;SDS011;76964;49.316;7.118;2024-03-07T03:21:42;6.90;;;6.60;;
86304;SDS011;76964;49.316;7.118;2024-03-07T03:24:10;6.40;;;6.10;;
86304;SDS011;76964;49.316;7.118;2024-03-07T03:26:38;7.27;;;6.90;;
86304;SDS011;76964;49.316;7.118;2024-03-07T03:29:10;6.80;;;6.50;;
86304;SDS011;76964;49.316;7.118;2024-03-07T03:31:40;7.70;;;7.20;;
86304;SDS011;76964;49.316;7.118;2024-03-07T03:34:08;7.53;;;7.13;;
86304;SDS011;76964;49.316;7.118;2024-03-07T03:36:36;6.80;;;6.50;;
86304;SDS011;76964;49.316;7.118;2024-03-07T03:39:05;7.43;;;7.03;;
86304;SDS011;76964;49.316;7.118;2024-03-07T03:41:37;6.80;;;6.50;;
86304;SDS011;76964;49.316;7.118;2024-03-07T03:44:05;6.70;;;6.40;;
86304;SDS011;76964;49.316;7.118;2024-03-07T03:46:35;7.87;;;7.37;;
86304;SDS011;76964;49.316;7.118;2024-03-07T03:49:03;7.40;;;7.00;;
86304;SDS011;76964;49.316;7.118;2024-03-07T03:51:32;7.80;;;7.40;;
86304;SDS011;76964;49.316;7.118;2024-03-07T03:54:00;6.97;;;6.67;;
86304;SDS011;76964;49.316;7.118;2024-03-07T03:56:29;7.30;;;6.90;;
86304;SDS011;76964;49.316;7.118;2024-03-07T03:58:58;7.47;;;7.07;;
86304;SDS011;76964;49.316;7.118;2024-03-07T04:01:26;7.50;;;7.13;;
86304;SDS011;76964;49.316;7.118;2024-03-07T04:03:56;7.33;;;6.87;;
86304;SDS011;76964;49.316;7.118;2024-03-07T04:06:24;8.03;;;7.63;;
86304;SDS011;76964;49.316;7.118;2024-03-07T04:08:52;7.40;;;7.00;;
86304;SDS011;76964;49.316;7.118;2024-03-07T04:11:22;7.27;;;6.97;;
86304;SDS011;76964;49.316;7.118;2024-03-07T04:13:50;7.60;;;7.20;;
86304;SDS011;76964;49.316;7.118;2024-03-07T04:16:18;7.60;;;7.20;;
86304;SDS011;76964;49.316;7.118;2024-03-07T04:18:46;7.10;;;6.80;;
86304;SDS011;76964;49.316;7.118;2024-03-07T04:21:15;7.37;;;7.00;;
86304;SDS011;76964;49.316;7.118;2024-03-07T04:23:43;6.50;;;6.30;;
86304;SDS011;76964;49.316;7.118;2024-03-07T04:26:13;7.20;;;6.80;;
86304;SDS011;76964;49.316;7.118;2024-03-07T04:28:41;7.23;;;6.90;;
86304;SDS011;76964;49.316;7.118;2024-03-07T04:31:09;7.70;;;7.30;;
86304;SDS011;76964;49.316;7.118;2024-03-07T04:33:38;7.73;;;7.33;;
86304;SDS011;76964;49.316;7.118;2024-03-07T04:36:07;7.27;;;6.97;;
86304;SDS011;76964;49.316;7.118;2024-03-07T04:38:36;7.03;;;6.73;;
86304;SDS011;76964;49.316;7.118;2024-03-07T04:41:05;7.20;;;6.90;;
86304;SDS011;76964;49.316;7.118;2024-03-07T04:43:34;7.50;;;7.13;;
86304;SDS011;76964;49.316;7.118;2024-03-07T04:46:02;7.60;;;7.20;;
86304;SDS011;76964;49.316;7.118;2024-03-07T04:48:33;7.67;;;7.23;;
86304;SDS011;76964;49.316;7.118;2024-03-07T04:51:01;7.03;;;6.73;;
86304;SDS011;76964;49.316;7.118;2024-03-07T04:53:29;8.23;;;7.63;;
86304;SDS011;76964;49.316;7.118;2024-03-07T04:55:59;7.63;;;7.23;;
86304;SDS011;76964;49.316;7.118;2024-03-07T04:58:27;7.83;;;7.43;;
86304;SDS011;76964;49.316;7.118;2024-03-07T05:00:55;7.30;;;7.00;;
86304;SDS011;76964;49.316;7.118;2024-03-07T05:03:24;7.90;;;7.50;;
86304;SDS011;76964;49.316;7.118;2024-03-07T05:05:53;7.47;;;7.07;;
86304;SDS011;76964;49.316;7.118;2024-03-07T05:08:23;7.50;;;7.10;;
86304;SDS011;76964;49.316;7.118;2024-03-07T05:10:52;7.10;;;6.80;;
86304;SDS011;76964;49.316;7.118;2024-03-07T05:13:22;7.10;;;6.80;;
86304;SDS011;76964;49.316;7.118;2024-03-07T05:15:50;7.60;;;7.20;;
86304;SDS011;76964;49.316;7.118;2024-03-07T05:18:19;8.07;;;7.67;;
86304;SDS011;76964;49.316;7.118;2024-03-07T05:20:49;7.03;;;6.73;;
86304;SDS011;76964;49.316;7.118;2024-03-07T05:23:17;7.43;;;7.10;;
86304;SDS011;76964;49.316;7.118;2024-03-07T05:25:45;6.97;;;6.67;;
86304;SDS011;76964;49.316;7.118;2024-03-07T05:28:15;7.40;;;7.00;;
86304;SDS011;76964;49.316;7.118;2024-03-07T05:30:45;8.13;;;7.73;;
86304;SDS011;76964;49.316;7.118;2024-03-07T05:33:15;7.70;;;7.30;;
86304;SDS011;76964;49.316;7.118;2024-03-07T05:35:44;7.33;;;6.93;;
86304;SDS011;76964;49.316;7.118;2024-03-07T05:38:12;7.20;;;6.90;;
86304;SDS011;76964;49.316;7.118;2024-03-07T05:40:40;7.20;;;6.90;;
86304;SDS011;76964;49.316;7.118;2024-03-07T05:43:09;7.73;;;7.33;;
86304;SDS011;76964;49.316;7.118;2024-03-07T05:45:39;7.67;;;7.27;;
86304;SDS011;76964;49.316;7.118;2024-03-07T05:48:14;7.67;;;7.20;;
86304;SDS011;76964;49.316;7.118;2024-03-07T05:50:44;8.10;;;7.60;;
86304;SDS011;76964;49.316;7.118;2024-03-07T05:53:13;7.47;;;7.07;;
86304;SDS011;76964;49.316;7.118;2024-03-07T05:55:42;7.50;;;7.20;;
86304;SDS011;76964;49.316;7.118;2024-03-07T05:58:10;7.33;;;7.00;;
86304;SDS011;76964;49.316;7.118;2024-03-07T06:00:38;7.33;;;7.03;;
86304;SDS011;76964;49.316;7.118;2024-03-07T06:03:07;7.87;;;7.47;;
86304;SDS011;76964;49.316;7.118;2024-03-07T06:05:37;8.03;;;7.60;;
86304;SDS011;76964;49.316;7.118;2024-03-07T06:08:09;7.67;;;7.27;;
86304;SDS011;76964;49.316;7.118;2024-03-07T06:10:37;7.17;;;6.90;;
86304;SDS011;76964;49.316;7.118;2024-03-07T06:13:07;7.13;;;6.83;;
86304;SDS011;76964;49.316;7.118;2024-03-07T06:15:37;7.07;;;6.77;;
86304;SDS011;76964;49.316;7.118;2024-03-07T06:18:06;7.90;;;7.53;;
86304;SDS011;76964;49.316;7.118;2024-03-07T06:20:38;7.30;;;7.00;;
86304;SDS011;76964;49.316;7.118;2024-03-07T06:23:08;7.17;;;6.87;;
86304;SDS011;76964;49.316;7.118;2024-03-07T06:25:38;7.63;;;7.27;;
86304;SDS011;76964;49.316;7.118;2024-03-07T06:28:14;7.67;;;7.27;;
86304;SDS011;76964;49.316;7.118;2024-03-07T06:30:42;7.17;;;6.87;;
86304;SDS011;76964;49.316;7.118;2024-03-07T06:33:13;8.37;;;7.97;;
86304;SDS011;76964;49.316;7.118;2024-03-07T06:35:44;8.20;;;7.70;;
86304;SDS011;76964;49.316;7.118;2024-03-07T06:38:12;8.10;;;7.70;;
86304;SDS011;76964;49.316;7.118;2024-03-07T06:40:41;7.77;;;7.40;;
86304;SDS011;76964;49.316;7.118;2024-03-07T06:43:09;7.67;;;7.27;;
86304;SDS011;76964;49.316;7.118;2024-03-07T06:45:38;7.20;;;6.90;;
86304;SDS011;76964;49.316;7.118;2024-03-07T06:48:10;8.30;;;7.87;;
86304;SDS011;76964;49.316;7.118;2024-03-07T06:50:39;7.97;;;7.57;;
86304;SDS011;76964;49.316;7.118;2024-03-07T06:53:09;7.93;;;7.53;;
86304;SDS011;76964;49.316;7.118;2024-03-07T06:55:37;7.23;;;6.93;;
86304;SDS011;76964;49.316;7.118;2024-03-07T06:58:05;7.77;;;7.37;;
86304;SDS011;76964;49.316;7.118;2024-03-07T07:00:33;7.53;;;7.13;;
86304;SDS011;76964;49.316;7.118;2024-03-07T07:03:05;8.03;;;7.63;;
86304;SDS011;76964;49.316;7.118;2024-03-07T07:05:33;8.23;;;7.73;;
86304;SDS011;76964;49.316;7.118;2024-03-07T07:08:02;8.17;;;7.77;;
86304;SDS011;76964;49.316;7.118;2024-03-07T07:10:34;8.10;;;7.70;;
86304;SDS011;76964;49.316;7.118;2024-03-07T07:13:03;8.47;;;7.97;;
86304;SDS011;76964;49.316;7.118;2024-03-07T07:15:31;8.17;;;7.77;;
86304;SDS011;76964;49.316;7.118;2024-03-07T07:18:00;7.90;;;7.50;;
86304;SDS011;76964;49.316;7.118;2024-03-07T07:20:29;8.13;;;7.73;;
86304;SDS011;76964;49.316;7.118;2024-03-07T07:23:00;8.10;;;7.70;;
86304;SDS011;76964;49.316;7.118;2024-03-07T07:25:30;7.97;;;7.57;;
86304;SDS011;76964;49.316;7.118;2024-03-07T07:28:00;8.17;;;7.77;;
86304;SDS011;76964;49.316;7.118;2024-03-07T07:30:31;7.90;;;7.50;;
86304;SDS011;76964;49.316;7.118;2024-03-07T07:32:59;8.13;;;7.73;;
86304;SDS011;76964;49.316;7.118;2024-03-07T07:35:28;7.70;;;7.40;;
86304;SDS011;76964;49.316;7.118;2024-03-07T07:37:56;8.63;;;8.20;;
86304;SDS011;76964;49.316;7.118;2024-03-07T07:40:24;7.47;;;7.17;;
86304;SDS011;76964;49.316;7.118;2024-03-07T07:42:54;8.37;;;7.87;;
86304;SDS011;76964;49.316;7.118;2024-03-07T07:45:24;7.87;;;7.47;;
86304;SDS011;76964;49.316;7.118;2024-03-07T07:47:52;7.30;;;7.00;;
86304;SDS011;76964;49.316;7.118;2024-03-07T07:50:22;7.57;;;7.23;;
86304;SDS011;76964;49.316;7.118;2024-03-07T07:52:52;8.57;;;8.07;;
86304;SDS011;76964;49.316;7.118;2024-03-07T07:55:21;7.87;;;7.47;;
86304;SDS011;76964;49.316;7.118;2024-03-07T07:57:51;7.90;;;7.37;;
86304;SDS011;76964;49.316;7.118;2024-03-07T08:00:21;8.10;;;7.60;;
86304;SDS011;76964;49.316;7.118;2024-03-07T08:02:52;8.00;;;7.50;;
86304;SDS011;76964;49.316;7.118;2024-03-07T08:05:22;9.27;;;8.53;;
86304;SDS011;76964;49.316;7.118;2024-03-07T08:07:51;9.83;;;8.97;;
86304;SDS011;76964;49.316;7.118;2024-03-07T08:10:21;9.87;;;8.97;;
86304;SDS011;76964;49.316;7.118;2024-03-07T08:12:50;9.67;;;8.80;;
86304;SDS011;76964;49.316;7.118;2024-03-07T08:15:19;9.57;;;8.67;;
86304;SDS011;76964;49.316;7.118;2024-03-07T08:17:47;10.37;;;9.47;;
86304;SDS011;76964;49.316;7.118;2024-03-07T08:20:19;10.23;;;9.33;;
86304;SDS011;76964;49.316;7.118;2024-03-07T08:22:49;10.63;;;9.53;;
86304;SDS011;76964;49.316;7.118;2024-03-07T08:25:19;11.03;;;10.03;;
86304;SDS011;76964;49.316;7.118;2024-03-07T08:27:51;10.90;;;9.60;;
86304;SDS011;76964;49.316;7.118;2024-03-07T08:30:20;10.33;;;9.43;;
86304;SDS011;76964;49.316;7.118;2024-03-07T08:32:49;10.47;;;9.37;;
86304;SDS011;76964;49.316;7.118;2024-03-07T08:35:20;10.70;;;9.70;;
86304;SDS011;76964;49.316;7.118;2024-03-07T08:37:50;12.10;;;10.17;;
86304;SDS011;76964;49.316;7.118;2024-03-07T08:40:22;11.83;;;10.63;;
86304;SDS011;76964;49.316;7.118;2024-03-07T08:42:55;13.30;;;10.77;;
86304;SDS011;76964;49.316;7.118;2024-03-07T08:45:24;10.80;;;9.80;;
86304;SDS011;76964;49.316;7.118;2024-03-07T08:47:53;14.63;;;10.57;;
86304;SDS011;76964;49.316;7.118;2024-03-07T08:50:24;10.87;;;9.77;;
86304;SDS011;76964;49.316;7.118;2024-03-07T08:52:54;10.27;;;9.27;;
86304;SDS011;76964;49.316;7.118;2024-03-07T08:55:22;12.87;;;10.20;;
86304;SDS011;76964;49.316;7.118;2024-03-07T08:57:52;10.60;;;9.50;;
86304;SDS011;76964;49.316;7.118;2024-03-07T09:00:20;10.87;;;9.63;;
86304;SDS011;76964;49.316;7.118;2024-03-07T09:02:54;10.73;;;9.63;;
86304;SDS011;76964;49.316;7.118;2024-03-07T09:05:27;10.80;;;9.70;;
86304;SDS011;76964;49.316;7.118;2024-03-07T09:07:56;10.87;;;9.77;;
86304;SDS011;76964;49.316;7.118;2024-03-07T09:10:25;11.07;;;9.73;;
86304;SDS011;76964;49.316;7.118;2024-03-07T09:12:56;11.00;;;9.90;;
86304;SDS011;76964;49.316;7.118;2024-03-07T09:15:25;10.80;;;9.70;;
86304;SDS011;76964;49.316;7.118;2024-03-07T09:17:54;10.47;;;9.47;;
86304;SDS011;76964;49.316;7.118;2024-03-07T09:20:22;10.60;;;9.50;;
86304;SDS011;76964;49.316;7.118;2024-03-07T09:22:52;11.67;;;9.53;;
86304;SDS011;76964;49.316;7.118;2024-03-07T09:25:21;10.37;;;9.37;;
86304;SDS011;76964;49.316;7.118;2024-03-07T09:27:51;11.40;;;10.20;;
86304;SDS011;76964;49.316;7.118;2024-03-07T09:30:20;11.00;;;9.90;;
86304;SDS011;76964;49.316;7.118;2024-03-07T09:32:52;11.13;;;10.07;;
86304;SDS011;76964;49.316;7.118;2024-03-07T09:35:21;10.07;;;8.97;;
86304;SDS011;76964;49.316;7.118;2024-03-07T09:37:50;10.13;;;9.13;;
86304;SDS011;76964;49.316;7.118;2024-03-07T09:40:19;10.30;;;9.30;;
86304;SDS011;76964;49.316;7.118;2024-03-07T09:42:51;10.53;;;9.53;;
86304;SDS011;76964;49.316;7.118;2024-03-07T09:45:21;9.77;;;8.80;;
86304;SDS011;76964;49.316;7.118;2024-03-07T09:47:56;10.00;;;9.10;;
86304;SDS011;76964;49.316;7.118;2024-03-07T09:50:25;10.20;;;9.30;;
86304;SDS011;76964;49.316;7.118;2024-03-07T09:52:56;9.57;;;8.77;;
86304;SDS011;76964;49.316;7.118;2024-03-07T09:55:28;10.23;;;9.23;;
86304;SDS011;76964;49.316;7.118;2024-03-07T09:57:57;10.53;;;9.43;;
86304;SDS011;76964;49.316;7.118;2024-03-07T10:00:28;9.57;;;8.67;;
86304;SDS011;76964;49.316;7.118;2024-03-07T10:02:58;9.33;;;8.63;;
86304;SDS011;76964;49.316;7.118;2024-03-07T10:05:28;9.53;;;8.73;;
86304;SDS011;76964;49.316;7.118;2024-03-07T10:07:59;9.40;;;8.63;;
86304;SDS011;76964;49.316;7.118;2024-03-07T10:10:29;9.33;;;8.53;;
86304;SDS011;76964;49.316;7.118;2024-03-07T10:12:58;10.07;;;9.27;;
86304;SDS011;76964;49.316;7.118;2024-03-07T10:15:27;9.00;;;8.23;;
86304;SDS011;76964;49.316;7.118;2024-03-07T10:17:58;9.60;;;8.80;;
86304;SDS011;76964;49.316;7.118;2024-03-07T10:20:28;9.17;;;8.47;;
86304;SDS011;76964;49.316;7.118;2024-03-07T10:22:56;9.20;;;8.40;;
86304;SDS011;76964;49.316;7.118;2024-03-07T10:25:26;8.80;;;8.00;;
86304;SDS011;76964;49.316;7.118;2024-03-07T10:27:57;8.97;;;8.07;;
86304;SDS011;76964;49.316;7.118;2024-03-07T10:30:27;9.30;;;8.50;;
86304;SDS011;76964;49.316;7.118;2024-03-07T10:32:55;8.47;;;7.87;;
86304;SDS011;76964;49.316;7.118;2024-03-07T10:35:26;8.33;;;7.73;;
86304;SDS011;76964;49.316;7.118;2024-03-07T10:37:56;8.77;;;8.07;;
86304;SDS011;76964;49.316;7.118;2024-03-07T10:40:27;9.13;;;8.40;;
86304;SDS011;76964;49.316;7.118;2024-03-07T10:42:58;8.10;;;7.53;;
86304;SDS011;76964;49.316;7.118;2024-03-07T10:45:30;8.33;;;7.83;;
86304;SDS011;76964;49.316;7.118;2024-03-07T10:48:01;8.07;;;7.37;;
86304;SDS011;76964;49.316;7.118;2024-03-07T10:50:38;8.37;;;7.80;;
86304;SDS011;76964;49.316;7.118;2024-03-07T10:53:14;7.97;;;7.47;;
86304;SDS011;76964;49.316;7.118;2024-03-07T10:55:53;8.13;;;7.53;;
86304;SDS011;76964;49.316;7.118;2024-03-07T10:58:45;8.23;;;7.63;;
86304;SDS011;76964;49.316;7.118;2024-03-07T11:01:21;7.63;;;7.13;;
86304;SDS011;76964;49.316;7.118;2024-03-07T11:03:51;8.20;;;7.60;;
86304;SDS011;76964;49.316;7.118;2024-03-07T11:06:24;7.93;;;7.43;;
86304;SDS011;76964;49.316;7.118;2024-03-07T11:08:53;8.03;;;7.43;;
86304;SDS011;76964;49.316;7.118;2024-03-07T11:11:22;7.67;;;7.17;;
86304;SDS011;76964;49.316;7.118;2024-03-07T11:13:52;8.33;;;7.73;;
86304;SDS011;76964;49.316;7.118;2024-03-07T11:16:24;7.20;;;6.80;;
86304;SDS011;76964;49.316;7.118;2024-03-07T11:21:47;7.53;;;6.93;;
86304;SDS011;76964;49.316;7.118;2024-03-07T11:24:25;7.73;;;7.23;;
86304;SDS011;76964;49.316;7.118;2024-03-07T11:26:55;10.83;;;7.20;;
86304;SDS011;76964;49.316;7.118;2024-03-07T11:29:41;7.93;;;7.07;;
86304;SDS011;76964;49.316;7.118;2024-03-07T11:32:11;8.13;;;7.47;;
86304;SDS011;76964;49.316;7.118;2024-03-07T11:34:41;9.10;;;7.40;;
86304;SDS011;76964;49.316;7.118;2024-03-07T11:37:16;8.10;;;7.30;;
86304;SDS011;76964;49.316;7.118;2024-03-07T11:39:50;7.50;;;6.77;;
86304;SDS011;76964;49.316;7.118;2024-03-07T11:42:22;7.50;;;7.00;;
86304;SDS011;76964;49.316;7.118;2024-03-07T11:44:54;8.43;;;7.70;;
86304;SDS011;76964;49.316;7.118;2024-03-07T11:47:24;7.97;;;7.27;;
86304;SDS011;76964;49.316;7.118;2024-03-07T11:49:56;7.60;;;6.80;;
86304;SDS011;76964;49.316;7.118;2024-03-07T11:52:25;7.70;;;7.10;;
86304;SDS011;76964;49.316;7.118;2024-03-07T11:54:54;7.07;;;6.47;;
86304;SDS011;76964;49.316;7.118;2024-03-07T11:57:31;7.83;;;7.13;;
86304;SDS011;76964;49.316;7.118;2024-03-07T12:00:02;7.80;;;7.20;;
86304;SDS011;76964;49.316;7.118;2024-03-07T12:02:37;7.40;;;7.00;;
86304;SDS011;76964;49.316;7.118;2024-03-07T12:05:07;6.60;;;6.20;;
86304;SDS011;76964;49.316;7.118;2024-03-07T12:07:35;6.87;;;6.40;;
86304;SDS011;76964;49.316;7.118;2024-03-07T12:10:04;7.27;;;6.57;;
86304;SDS011;76964;49.316;7.118;2024-03-07T12:12:33;8.00;;;6.93;;
86304;SDS011;76964;49.316;7.118;2024-03-07T12:15:07;7.13;;;6.63;;
86304;SDS011;76964;49.316;7.118;2024-03-07T12:17:44;6.70;;;6.30;;
86304;SDS011;76964;49.316;7.118;2024-03-07T12:20:15;6.53;;;6.00;;
86304;SDS011;76964;49.316;7.118;2024-03-07T12:22:52;6.50;;;6.20;;
86304;SDS011;76964;49.316;7.118;2024-03-07T12:25:23;6.40;;;6.10;;
86304;SDS011;76964;49.316;7.118;2024-03-07T12:28:03;7.30;;;6.80;;
86304;SDS011;76964;49.316;7.118;2024-03-07T12:30:47;6.83;;;6.33;;
86304;SDS011;76964;49.316;7.118;2024-03-07T12:33:17;6.63;;;6.27;;
86304;SDS011;76964;49.316;7.118;2024-03-07T12:35:46;6.30;;;6.00;;
86304;SDS011;76964;49.316;7.118;2024-03-07T12:38:16;6.63;;;6.33;;
86304;SDS011;76964;49.316;7.118;2024-03-07T12:40:45;6.63;;;6.23;;
86304;SDS011;76964;49.316;7.118;2024-03-07T12:43:14;6.17;;;5.77;;
86304;SDS011;76964;49.316;7.118;2024-03-07T12:45:51;6.70;;;6.30;;
86304;SDS011;76964;49.316;7.118;2024-03-07T12:48:21;6.30;;;5.97;;
86304;SDS011;76964;49.316;7.118;2024-03-07T12:50:49;6.57;;;6.17;;
86304;SDS011;76964;49.316;7.118;2024-03-07T12:53:20;6.67;;;6.17;;
86304;SDS011;76964;49.316;7.118;2024-03-07T12:55:48;6.20;;;5.90;;
86304;SDS011;76964;49.316;7.118;2024-03-07T12:58:18;6.53;;;6.13;;
86304;SDS011;76964;49.316;7.118;2024-03-07T13:00:48;5.93;;;5.63;;
86304;SDS011;76964;49.316;7.118;2024-03-07T13:03:18;6.73;;;6.33;;
86304;SDS011;76964;49.316;7.118;2024-03-07T13:05:46;5.63;;;5.43;;
86304;SDS011;76964;49.316;7.118;2024-03-07T13:08:14;5.70;;;5.50;;
86304;SDS011;76964;49.316;7.118;2024-03-07T13:10:43;6.17;;;5.87;;
86304;SDS011;76964;49.316;7.118;2024-03-07T13:13:15;6.50;;;6.20;;
86304;SDS011;76964;49.316;7.118;2024-03-07T13:15:43;5.40;;;5.20;;
86304;SDS011;76964;49.316;7.118;2024-03-07T13:18:13;5.87;;;5.57;;
86304;SDS011;76964;49.316;7.118;2024-03-07T13:20:44;5.77;;;5.47;;
86304;SDS011;76964;49.316;7.118;2024-03-07T13:23:12;5.80;;;5.50;;
86304;SDS011;76964;49.316;7.118;2024-03-07T13:25:40;6.43;;;6.03;;
86304;SDS011;76964;49.316;7.118;2024-03-07T13:28:11;6.53;;;6.10;;
86304;SDS011;76964;49.316;7.118;2024-03-07T13:30:43;5.90;;;5.60;;
86304;SDS011;76964;49.316;7.118;2024-03-07T13:33:16;5.43;;;5.23;;
86304;SDS011;76964;49.316;7.118;2024-03-07T13:35:46;5.67;;;5.37;;
86304;SDS011;76964;49.316;7.118;2024-03-07T13:38:14;5.77;;;5.47;;
86304;SDS011;76964;49.316;7.118;2024-03-07T13:40:43;5.60;;;5.40;;
86304;SDS011;76964;49.316;7.118;2024-03-07T13:43:11;5.83;;;5.53;;
86304;SDS011;76964;49.316;7.118;2024-03-07T13:45:39;5.93;;;5.63;;
86304;SDS011;76964;49.316;7.118;2024-03-07T13:48:10;6.20;;;5.90;;
86304;SDS011;76964;49.316;7.118;2024-03-07T13:50:40;5.90;;;5.47;;
86304;SDS011;76964;49.316;7.118;2024-03-07T13:53:26;6.00;;;5.70;;
86304;SDS011;76964;49.316;7.118;2024-03-07T13:56:12;5.60;;;5.30;;
86304;SDS011;76964;49.316;7.118;2024-03-07T13:59:20;5.30;;;5.10;;
86304;SDS011;76964;49.316;7.118;2024-03-07T14:02:41;5.70;;;5.47;;
86304;SDS011;76964;49.316;7.118;2024-03-07T14:05:31;5.50;;;5.20;;
86304;SDS011;76964;49.316;7.118;2024-03-07T14:17:25;5.43;;;5.23;;
86304;SDS011;76964;49.316;7.118;2024-03-07T14:20:35;5.33;;;5.10;;
86304;SDS011;76964;49.316;7.118;2024-03-07T14:23:32;5.03;;;4.93;;
86304;SDS011;76964;49.316;7.118;2024-03-07T14:26:25;5.17;;;4.97;;
86304;SDS011;76964;49.316;7.118;2024-03-07T14:29:22;5.27;;;5.07;;
86304;SDS011;76964;49.316;7.118;2024-03-07T14:31:57;5.50;;;5.20;;
86304;SDS011;76964;49.316;7.118;2024-03-07T14:34:29;5.17;;;4.97;;
86304;SDS011;76964;49.316;7.118;2024-03-07T14:37:09;5.37;;;5.07;;
86304;SDS011;76964;49.316;7.118;2024-03-07T14:39:45;5.40;;;5.20;;
86304;SDS011;76964;49.316;7.118;2024-03-07T14:42:19;5.27;;;5.00;;
86304;SDS011;76964;49.316;7.118;2024-03-07T14:44:47;5.10;;;4.90;;
86304;SDS011;76964;49.316;7.118;2024-03-07T14:47:16;4.60;;;4.47;;
86304;SDS011;76964;49.316;7.118;2024-03-07T14:49:47;5.33;;;5.13;;
86304;SDS011;76964;49.316;7.118;2024-03-07T14:52:15;4.90;;;4.70;;
86304;SDS011;76964;49.316;7.118;2024-03-07T14:54:43;4.73;;;4.53;;
86304;SDS011;76964;49.316;7.118;2024-03-07T14:57:13;5.53;;;5.23;;
86304;SDS011;76964;49.316;7.118;2024-03-07T14:59:46;5.13;;;4.93;;
86304;SDS011;76964;49.316;7.118;2024-03-07T15:02:15;5.03;;;4.83;;
86304;SDS011;76964;49.316;7.118;2024-03-07T15:04:43;4.67;;;4.47;;
86304;SDS011;76964;49.316;7.118;2024-03-07T15:07:12;5.37;;;5.13;;
86304;SDS011;76964;49.316;7.118;2024-03-07T15:09:40;4.87;;;4.70;;
86304;SDS011;76964;49.316;7.118;2024-03-07T15:12:08;4.80;;;4.70;;
86304;SDS011;76964;49.316;7.118;2024-03-07T15:14:36;5.10;;;4.90;;
86304;SDS011;76964;49.316;7.118;2024-03-07T15:17:08;5.50;;;5.30;;